OIFS  Shahrekord  Airport

Shahrekord, Iran

Add Bookmark
ICAO OIFS
IATA CQD
Type Airport
Status Operational
Latitude
32° 17' 49" N
32.297199
Longitude
50° 50' 31" E
50.842201
Local (GMT +4.5 ) UTC
Aug 29, 2016 09:51 am Aug 29, 2016 05:21
Sunrise-Sunset Local UTC
Begin Civil Twilight 06:13 am 01:43
Sunrise 06:39 am 02:09
Sunset 07:35 pm 15:05
End Civil Twilight 08:00 pm 15:30
VFR
VFR
MVFR
MVFR
IFR
IFR
LIFR
LIFR
Unknown
Unavailable

Current Weather

METAR Observed VFR
OIFS 290500Z 07004KT CAVOK 21/01 Q1027 Mon, Aug 29, 2016 @ 05:00 UTC
(21 Minutes ago)
Visual Flight Rules
Wind Visibility Conditions
070° at 4 knots (7 kph) 10 km or more
  • No significant weather
Temperatures Readings Precipitation
Current Temp
21°C
70°F
Dewpoint
1°C
34°F
Humidity 27%
Altimeter 30.32" Hg
Sea Level Pressure 1,027 mb
Field Elevation
2,078 m
6,818 ft
None Recorded
-
-

CheckWX.com is intended as a tool to help pilots better visualize weather data. It is not intended as a substitute for an official weather briefing obtained from a Flight Service Station. CheckWX.com does not meet the FAA requirements for an official pre-flight weather briefing. Therefore, it's important that pilots still call and obtain an official FSS pre-flight weather briefing.

© 2007-2016 CheckWX.com
05:21:01 UTC